sensor_id;sensor_type;location;lat;lon;timestamp;P1;durP1;ratioP1;P2;durP2;ratioP2
61336;SDS011;47212;41.326;2.104;2022-11-20T00:03:14;5.50;;;1.20;;
61336;SDS011;47212;41.326;2.104;2022-11-20T00:08:16;2.22;;;1.60;;
61336;SDS011;47212;41.326;2.104;2022-11-20T00:13:19;2.03;;;1.13;;
61336;SDS011;47212;41.326;2.104;2022-11-20T00:18:26;1.98;;;1.30;;
61336;SDS011;47212;41.326;2.104;2022-11-20T00:23:29;1.58;;;1.20;;
61336;SDS011;47212;41.326;2.104;2022-11-20T00:28:33;2.05;;;1.20;;
61336;SDS011;47212;41.326;2.104;2022-11-20T00:38:38;1.25;;;1.15;;
61336;SDS011;47212;41.326;2.104;2022-11-20T00:43:41;1.77;;;1.20;;
61336;SDS011;47212;41.326;2.104;2022-11-20T00:48:44;2.47;;;1.10;;
61336;SDS011;47212;41.326;2.104;2022-11-20T00:53:49;2.22;;;1.08;;
61336;SDS011;47212;41.326;2.104;2022-11-20T01:03:54;0.90;;;0.90;;
61336;SDS011;47212;41.326;2.104;2022-11-20T01:08:58;1.40;;;1.00;;
61336;SDS011;47212;41.326;2.104;2022-11-20T01:14:02;1.33;;;0.80;;
61336;SDS011;47212;41.326;2.104;2022-11-20T01:19:07;1.45;;;0.93;;
61336;SDS011;47212;41.326;2.104;2022-11-20T01:24:19;1.80;;;1.17;;
61336;SDS011;47212;41.326;2.104;2022-11-20T01:29:23;2.25;;;0.70;;
61336;SDS011;47212;41.326;2.104;2022-11-20T01:34:26;1.55;;;1.20;;
61336;SDS011;47212;41.326;2.104;2022-11-20T01:39:29;24.40;;;15.93;;
61336;SDS011;47212;41.326;2.104;2022-11-20T01:50:05;1.40;;;1.00;;
61336;SDS011;47212;41.326;2.104;2022-11-20T01:55:14;1.67;;;1.13;;
61336;SDS011;47212;41.326;2.104;2022-11-20T02:11:13;2.22;;;1.40;;
61336;SDS011;47212;41.326;2.104;2022-11-20T02:16:23;2.45;;;1.20;;
61336;SDS011;47212;41.326;2.104;2022-11-20T02:21:46;1.40;;;1.08;;
61336;SDS011;47212;41.326;2.104;2022-11-20T02:27:31;1.90;;;0.90;;
61336;SDS011;47212;41.326;2.104;2022-11-20T02:32:43;1.27;;;1.05;;
61336;SDS011;47212;41.326;2.104;2022-11-20T02:37:51;2.28;;;1.00;;
61336;SDS011;47212;41.326;2.104;2022-11-20T02:43:03;1.20;;;0.93;;
61336;SDS011;47212;41.326;2.104;2022-11-20T02:48:13;1.58;;;1.08;;
61336;SDS011;47212;41.326;2.104;2022-11-20T02:53:17;1.40;;;0.98;;
61336;SDS011;47212;41.326;2.104;2022-11-20T02:58:28;2.28;;;1.40;;
61336;SDS011;47212;41.326;2.104;2022-11-20T03:03:33;1.45;;;1.05;;
61336;SDS011;47212;41.326;2.104;2022-11-20T03:08:48;1.17;;;1.00;;
61336;SDS011;47212;41.326;2.104;2022-11-20T03:13:56;1.10;;;1.00;;
61336;SDS011;47212;41.326;2.104;2022-11-20T03:19:14;2.33;;;1.30;;
61336;SDS011;47212;41.326;2.104;2022-11-20T03:24:23;1.15;;;1.05;;
61336;SDS011;47212;41.326;2.104;2022-11-20T03:29:26;1.98;;;1.08;;
61336;SDS011;47212;41.326;2.104;2022-11-20T03:34:34;1.95;;;1.10;;
61336;SDS011;47212;41.326;2.104;2022-11-20T03:39:38;1.88;;;1.25;;
61336;SDS011;47212;41.326;2.104;2022-11-20T03:44:55;1.95;;;1.25;;
61336;SDS011;47212;41.326;2.104;2022-11-20T03:50:00;3.47;;;1.50;;
61336;SDS011;47212;41.326;2.104;2022-11-20T03:55:13;3.27;;;1.50;;
61336;SDS011;47212;41.326;2.104;2022-11-20T04:07:09;1.30;;;1.20;;
61336;SDS011;47212;41.326;2.104;2022-11-20T04:12:27;2.00;;;1.00;;
61336;SDS011;47212;41.326;2.104;2022-11-20T04:17:40;2.08;;;1.00;;
61336;SDS011;47212;41.326;2.104;2022-11-20T04:22:45;1.90;;;1.13;;
61336;SDS011;47212;41.326;2.104;2022-11-20T04:27:53;1.30;;;0.95;;
61336;SDS011;47212;41.326;2.104;2022-11-20T04:32:57;2.17;;;1.00;;
61336;SDS011;47212;41.326;2.104;2022-11-20T04:38:07;3.17;;;1.10;;
61336;SDS011;47212;41.326;2.104;2022-11-20T04:43:13;2.05;;;1.30;;
61336;SDS011;47212;41.326;2.104;2022-11-20T04:48:22;1.92;;;1.23;;
61336;SDS011;47212;41.326;2.104;2022-11-20T04:53:31;1.55;;;1.00;;
61336;SDS011;47212;41.326;2.104;2022-11-20T04:58:41;2.10;;;1.30;;
61336;SDS011;47212;41.326;2.104;2022-11-20T05:03:46;2.53;;;1.50;;
61336;SDS011;47212;41.326;2.104;2022-11-20T05:13:51;2.10;;;1.53;;
61336;SDS011;47212;41.326;2.104;2022-11-20T05:23:55;6.57;;;1.85;;
61336;SDS011;47212;41.326;2.104;2022-11-20T05:28:57;2.78;;;1.55;;
61336;SDS011;47212;41.326;2.104;2022-11-20T05:33:59;2.30;;;1.70;;
61336;SDS011;47212;41.326;2.104;2022-11-20T05:39:01;1.77;;;1.50;;
61336;SDS011;47212;41.326;2.104;2022-11-20T05:51:04;1.30;;;1.20;;
61336;SDS011;47212;41.326;2.104;2022-11-20T05:58:03;1.52;;;1.20;;
61336;SDS011;47212;41.326;2.104;2022-11-20T06:04:59;3.72;;;1.48;;
61336;SDS011;47212;41.326;2.104;2022-11-20T06:10:26;3.08;;;1.80;;
61336;SDS011;47212;41.326;2.104;2022-11-20T06:15:28;4.47;;;1.70;;
61336;SDS011;47212;41.326;2.104;2022-11-20T06:20:30;2.72;;;1.67;;
61336;SDS011;47212;41.326;2.104;2022-11-20T06:25:32;2.83;;;2.03;;
61336;SDS011;47212;41.326;2.104;2022-11-20T06:30:34;3.37;;;1.87;;
61336;SDS011;47212;41.326;2.104;2022-11-20T06:35:37;3.38;;;2.15;;
61336;SDS011;47212;41.326;2.104;2022-11-20T06:40:42;8.13;;;2.45;;
61336;SDS011;47212;41.326;2.104;2022-11-20T06:45:54;5.28;;;2.47;;
61336;SDS011;47212;41.326;2.104;2022-11-20T06:50:58;4.07;;;2.10;;
61336;SDS011;47212;41.326;2.104;2022-11-20T06:56:00;3.70;;;2.22;;
61336;SDS011;47212;41.326;2.104;2022-11-20T07:01:03;4.10;;;1.83;;
61336;SDS011;47212;41.326;2.104;2022-11-20T07:06:07;3.70;;;2.00;;
61336;SDS011;47212;41.326;2.104;2022-11-20T07:11:11;4.75;;;2.50;;
61336;SDS011;47212;41.326;2.104;2022-11-20T07:16:13;4.80;;;2.38;;
61336;SDS011;47212;41.326;2.104;2022-11-20T07:21:16;3.90;;;2.17;;
61336;SDS011;47212;41.326;2.104;2022-11-20T07:26:18;4.57;;;2.17;;
61336;SDS011;47212;41.326;2.104;2022-11-20T07:31:21;3.97;;;2.20;;
61336;SDS011;47212;41.326;2.104;2022-11-20T07:36:23;6.03;;;2.55;;
61336;SDS011;47212;41.326;2.104;2022-11-20T07:41:25;5.88;;;2.97;;
61336;SDS011;47212;41.326;2.104;2022-11-20T07:46:27;5.03;;;2.80;;
61336;SDS011;47212;41.326;2.104;2022-11-20T07:51:29;5.47;;;2.92;;
61336;SDS011;47212;41.326;2.104;2022-11-20T07:56:32;4.60;;;2.75;;
61336;SDS011;47212;41.326;2.104;2022-11-20T08:01:34;4.65;;;2.40;;
61336;SDS011;47212;41.326;2.104;2022-11-20T08:06:36;4.55;;;2.20;;
61336;SDS011;47212;41.326;2.104;2022-11-20T08:11:38;5.68;;;2.45;;
61336;SDS011;47212;41.326;2.104;2022-11-20T08:16:59;5.68;;;2.75;;
61336;SDS011;47212;41.326;2.104;2022-11-20T08:22:01;7.20;;;3.13;;
61336;SDS011;47212;41.326;2.104;2022-11-20T08:27:03;6.75;;;2.90;;
61336;SDS011;47212;41.326;2.104;2022-11-20T08:37:09;6.32;;;2.80;;
61336;SDS011;47212;41.326;2.104;2022-11-20T08:47:12;4.87;;;2.27;;
61336;SDS011;47212;41.326;2.104;2022-11-20T08:52:16;4.93;;;2.10;;
61336;SDS011;47212;41.326;2.104;2022-11-20T08:57:17;5.60;;;2.13;;
61336;SDS011;47212;41.326;2.104;2022-11-20T09:02:19;3.47;;;2.22;;
61336;SDS011;47212;41.326;2.104;2022-11-20T09:07:21;6.68;;;2.50;;
61336;SDS011;47212;41.326;2.104;2022-11-20T09:12:23;8.10;;;4.10;;
61336;SDS011;47212;41.326;2.104;2022-11-20T09:17:25;7.13;;;3.33;;
61336;SDS011;47212;41.326;2.104;2022-11-20T09:27:29;4.65;;;2.00;;
61336;SDS011;47212;41.326;2.104;2022-11-20T09:37:33;4.30;;;1.50;;
61336;SDS011;47212;41.326;2.104;2022-11-20T09:58:15;3.80;;;1.77;;
61336;SDS011;47212;41.326;2.104;2022-11-20T10:08:42;3.95;;;2.00;;
61336;SDS011;47212;41.326;2.104;2022-11-20T10:13:53;5.72;;;2.92;;
61336;SDS011;47212;41.326;2.104;2022-11-20T10:24:40;3.38;;;1.80;;
61336;SDS011;47212;41.326;2.104;2022-11-20T10:29:47;4.95;;;1.80;;
61336;SDS011;47212;41.326;2.104;2022-11-20T10:35:02;3.10;;;1.75;;
61336;SDS011;47212;41.326;2.104;2022-11-20T10:40:27;2.53;;;1.65;;
61336;SDS011;47212;41.326;2.104;2022-11-20T10:45:47;3.87;;;1.40;;
61336;SDS011;47212;41.326;2.104;2022-11-20T10:50:55;2.45;;;1.55;;
61336;SDS011;47212;41.326;2.104;2022-11-20T11:01:53;2.75;;;1.00;;
61336;SDS011;47212;41.326;2.104;2022-11-20T11:07:06;3.20;;;1.13;;
61336;SDS011;47212;41.326;2.104;2022-11-20T11:12:14;1.77;;;1.10;;
61336;SDS011;47212;41.326;2.104;2022-11-20T11:22:34;2.83;;;1.00;;
61336;SDS011;47212;41.326;2.104;2022-11-20T11:27:47;3.17;;;1.67;;
61336;SDS011;47212;41.326;2.104;2022-11-20T11:32:50;1.60;;;1.10;;
61336;SDS011;47212;41.326;2.104;2022-11-20T11:38:06;1.45;;;0.93;;
61336;SDS011;47212;41.326;2.104;2022-11-20T11:43:18;1.75;;;1.05;;
61336;SDS011;47212;41.326;2.104;2022-11-20T11:48:42;1.42;;;0.98;;
61336;SDS011;47212;41.326;2.104;2022-11-20T11:53:58;3.33;;;1.70;;
61336;SDS011;47212;41.326;2.104;2022-11-20T11:59:06;2.28;;;1.20;;
61336;SDS011;47212;41.326;2.104;2022-11-20T12:04:18;1.80;;;1.10;;
61336;SDS011;47212;41.326;2.104;2022-11-20T12:09:35;1.33;;;1.00;;
61336;SDS011;47212;41.326;2.104;2022-11-20T12:14:45;2.53;;;1.40;;
61336;SDS011;47212;41.326;2.104;2022-11-20T12:19:50;1.77;;;1.27;;
61336;SDS011;47212;41.326;2.104;2022-11-20T12:25:00;4.47;;;1.65;;
61336;SDS011;47212;41.326;2.104;2022-11-20T12:30:12;3.05;;;1.70;;
61336;SDS011;47212;41.326;2.104;2022-11-20T12:46:33;3.03;;;1.90;;
61336;SDS011;47212;41.326;2.104;2022-11-20T13:08:20;2.90;;;1.77;;
61336;SDS011;47212;41.326;2.104;2022-11-20T13:19:17;3.28;;;1.98;;
61336;SDS011;47212;41.326;2.104;2022-11-20T13:29:26;1.92;;;1.20;;
61336;SDS011;47212;41.326;2.104;2022-11-20T13:34:31;1.83;;;1.13;;
61336;SDS011;47212;41.326;2.104;2022-11-20T13:39:34;1.75;;;1.20;;
61336;SDS011;47212;41.326;2.104;2022-11-20T13:44:38;2.50;;;1.30;;
61336;SDS011;47212;41.326;2.104;2022-11-20T13:49:48;1.42;;;1.08;;
61336;SDS011;47212;41.326;2.104;2022-11-20T13:55:00;3.00;;;1.20;;
61336;SDS011;47212;41.326;2.104;2022-11-20T14:00:15;1.63;;;1.10;;
61336;SDS011;47212;41.326;2.104;2022-11-20T14:05:21;1.33;;;1.00;;
61336;SDS011;47212;41.326;2.104;2022-11-20T14:10:26;1.58;;;1.08;;
61336;SDS011;47212;41.326;2.104;2022-11-20T14:15:33;1.30;;;0.93;;
61336;SDS011;47212;41.326;2.104;2022-11-20T14:20:45;3.55;;;1.20;;
61336;SDS011;47212;41.326;2.104;2022-11-20T14:25:47;1.40;;;0.77;;
61336;SDS011;47212;41.326;2.104;2022-11-20T14:46:30;0.77;;;0.68;;
61336;SDS011;47212;41.326;2.104;2022-11-20T14:56:39;4.85;;;1.60;;
61336;SDS011;47212;41.326;2.104;2022-11-20T15:01:42;1.30;;;1.10;;
61336;SDS011;47212;41.326;2.104;2022-11-20T15:07:06;3.83;;;1.20;;
61336;SDS011;47212;41.326;2.104;2022-11-20T15:17:19;1.35;;;1.00;;
61336;SDS011;47212;41.326;2.104;2022-11-20T15:22:23;0.70;;;0.70;;
61336;SDS011;47212;41.326;2.104;2022-11-20T15:27:25;2.33;;;1.35;;
61336;SDS011;47212;41.326;2.104;2022-11-20T15:32:27;1.75;;;1.20;;
61336;SDS011;47212;41.326;2.104;2022-11-20T15:37:29;1.75;;;1.20;;
61336;SDS011;47212;41.326;2.104;2022-11-20T15:47:34;2.13;;;0.90;;
61336;SDS011;47212;41.326;2.104;2022-11-20T15:52:37;2.80;;;1.02;;
61336;SDS011;47212;41.326;2.104;2022-11-20T15:57:42;1.00;;;0.90;;
61336;SDS011;47212;41.326;2.104;2022-11-20T16:02:44;1.98;;;1.27;;
61336;SDS011;47212;41.326;2.104;2022-11-20T16:07:46;2.35;;;1.45;;
61336;SDS011;47212;41.326;2.104;2022-11-20T16:18:09;4.28;;;1.70;;
61336;SDS011;47212;41.326;2.104;2022-11-20T16:23:13;3.05;;;1.60;;
61336;SDS011;47212;41.326;2.104;2022-11-20T16:28:15;2.28;;;1.30;;
61336;SDS011;47212;41.326;2.104;2022-11-20T16:33:21;1.73;;;1.23;;
61336;SDS011;47212;41.326;2.104;2022-11-20T16:38:24;2.80;;;1.10;;
61336;SDS011;47212;41.326;2.104;2022-11-20T16:43:26;3.40;;;1.30;;
61336;SDS011;47212;41.326;2.104;2022-11-20T16:48:28;2.75;;;1.30;;
61336;SDS011;47212;41.326;2.104;2022-11-20T16:53:30;2.53;;;1.25;;
61336;SDS011;47212;41.326;2.104;2022-11-20T16:58:35;2.42;;;1.42;;
61336;SDS011;47212;41.326;2.104;2022-11-20T17:03:39;1.80;;;1.40;;
61336;SDS011;47212;41.326;2.104;2022-11-20T17:08:42;3.45;;;1.77;;
61336;SDS011;47212;41.326;2.104;2022-11-20T17:13:46;1.88;;;1.50;;
61336;SDS011;47212;41.326;2.104;2022-11-20T17:18:49;2.75;;;1.40;;
61336;SDS011;47212;41.326;2.104;2022-11-20T17:23:51;2.15;;;1.48;;
61336;SDS011;47212;41.326;2.104;2022-11-20T17:34:02;3.10;;;1.58;;
61336;SDS011;47212;41.326;2.104;2022-11-20T17:44:08;3.35;;;1.60;;
61336;SDS011;47212;41.326;2.104;2022-11-20T17:49:11;4.10;;;1.75;;
61336;SDS011;47212;41.326;2.104;2022-11-20T17:54:14;3.55;;;2.00;;
61336;SDS011;47212;41.326;2.104;2022-11-20T17:59:19;3.75;;;2.05;;
61336;SDS011;47212;41.326;2.104;2022-11-20T18:04:21;5.63;;;3.13;;
61336;SDS011;47212;41.326;2.104;2022-11-20T18:09:23;5.30;;;3.00;;
61336;SDS011;47212;41.326;2.104;2022-11-20T18:19:38;6.87;;;3.33;;
61336;SDS011;47212;41.326;2.104;2022-11-20T18:25:02;5.82;;;3.70;;
61336;SDS011;47212;41.326;2.104;2022-11-20T18:30:05;6.45;;;3.92;;
61336;SDS011;47212;41.326;2.104;2022-11-20T18:35:09;7.53;;;4.57;;
61336;SDS011;47212;41.326;2.104;2022-11-20T18:40:11;7.22;;;4.45;;
61336;SDS011;47212;41.326;2.104;2022-11-20T18:45:16;9.10;;;4.65;;
61336;SDS011;47212;41.326;2.104;2022-11-20T18:50:22;7.93;;;4.60;;
61336;SDS011;47212;41.326;2.104;2022-11-20T18:55:25;9.18;;;4.55;;
61336;SDS011;47212;41.326;2.104;2022-11-20T19:00:27;8.90;;;4.70;;
61336;SDS011;47212;41.326;2.104;2022-11-20T19:10:31;6.45;;;3.25;;
61336;SDS011;47212;41.326;2.104;2022-11-20T19:15:33;11.43;;;7.20;;
61336;SDS011;47212;41.326;2.104;2022-11-20T19:20:40;14.02;;;6.72;;
61336;SDS011;47212;41.326;2.104;2022-11-20T19:30:49;10.70;;;6.60;;
61336;SDS011;47212;41.326;2.104;2022-11-20T19:35:53;12.98;;;7.25;;
61336;SDS011;47212;41.326;2.104;2022-11-20T19:40:56;10.52;;;6.07;;
61336;SDS011;47212;41.326;2.104;2022-11-20T19:45:59;10.60;;;6.43;;
61336;SDS011;47212;41.326;2.104;2022-11-20T19:51:15;12.93;;;6.90;;
61336;SDS011;47212;41.326;2.104;2022-11-20T19:56:20;10.25;;;6.20;;
61336;SDS011;47212;41.326;2.104;2022-11-20T20:01:28;10.93;;;6.38;;
61336;SDS011;47212;41.326;2.104;2022-11-20T20:06:34;9.80;;;5.97;;
61336;SDS011;47212;41.326;2.104;2022-11-20T20:11:39;9.55;;;5.80;;
61336;SDS011;47212;41.326;2.104;2022-11-20T20:16:46;16.60;;;7.68;;
61336;SDS011;47212;41.326;2.104;2022-11-20T20:21:50;13.45;;;7.68;;
61336;SDS011;47212;41.326;2.104;2022-11-20T20:26:57;13.80;;;7.18;;
61336;SDS011;47212;41.326;2.104;2022-11-20T20:32:00;13.00;;;7.65;;
61336;SDS011;47212;41.326;2.104;2022-11-20T20:37:02;9.43;;;6.07;;
61336;SDS011;47212;41.326;2.104;2022-11-20T20:42:06;9.55;;;5.72;;
61336;SDS011;47212;41.326;2.104;2022-11-20T20:47:09;12.38;;;6.50;;
61336;SDS011;47212;41.326;2.104;2022-11-20T20:52:12;10.63;;;6.10;;
61336;SDS011;47212;41.326;2.104;2022-11-20T20:57:15;10.45;;;6.32;;
61336;SDS011;47212;41.326;2.104;2022-11-20T21:02:17;13.88;;;7.18;;
61336;SDS011;47212;41.326;2.104;2022-11-20T21:07:25;10.55;;;5.97;;
61336;SDS011;47212;41.326;2.104;2022-11-20T21:12:28;11.20;;;6.28;;
61336;SDS011;47212;41.326;2.104;2022-11-20T21:17:30;11.82;;;5.72;;
61336;SDS011;47212;41.326;2.104;2022-11-20T21:22:32;10.73;;;6.28;;
61336;SDS011;47212;41.326;2.104;2022-11-20T21:27:37;11.60;;;5.45;;
61336;SDS011;47212;41.326;2.104;2022-11-20T21:32:39;10.10;;;5.20;;
61336;SDS011;47212;41.326;2.104;2022-11-20T21:37:41;11.27;;;5.30;;
61336;SDS011;47212;41.326;2.104;2022-11-20T21:42:44;11.18;;;5.00;;
61336;SDS011;47212;41.326;2.104;2022-11-20T21:47:50;8.77;;;5.15;;
61336;SDS011;47212;41.326;2.104;2022-11-20T21:52:52;8.68;;;5.25;;
61336;SDS011;47212;41.326;2.104;2022-11-20T21:57:54;11.23;;;4.68;;
61336;SDS011;47212;41.326;2.104;2022-11-20T22:02:56;8.90;;;4.82;;
61336;SDS011;47212;41.326;2.104;2022-11-20T22:07:59;10.70;;;5.43;;
61336;SDS011;47212;41.326;2.104;2022-11-20T22:13:02;11.57;;;5.53;;
61336;SDS011;47212;41.326;2.104;2022-11-20T22:18:24;10.68;;;4.93;;
61336;SDS011;47212;41.326;2.104;2022-11-20T22:23:26;6.97;;;4.32;;
61336;SDS011;47212;41.326;2.104;2022-11-20T22:28:32;7.90;;;4.95;;
61336;SDS011;47212;41.326;2.104;2022-11-20T22:33:35;10.40;;;5.30;;
61336;SDS011;47212;41.326;2.104;2022-11-20T22:38:42;11.57;;;6.60;;
61336;SDS011;47212;41.326;2.104;2022-11-20T22:43:48;11.70;;;6.35;;
61336;SDS011;47212;41.326;2.104;2022-11-20T22:48:56;9.40;;;5.63;;
61336;SDS011;47212;41.326;2.104;2022-11-20T22:54:00;10.82;;;4.95;;
61336;SDS011;47212;41.326;2.104;2022-11-20T22:59:13;7.93;;;4.43;;
61336;SDS011;47212;41.326;2.104;2022-11-20T23:04:19;12.40;;;5.72;;
61336;SDS011;47212;41.326;2.104;2022-11-20T23:09:23;8.80;;;5.20;;
61336;SDS011;47212;41.326;2.104;2022-11-20T23:14:25;8.45;;;4.72;;
61336;SDS011;47212;41.326;2.104;2022-11-20T23:19:28;11.95;;;5.60;;
61336;SDS011;47212;41.326;2.104;2022-11-20T23:24:36;11.70;;;6.28;;
61336;SDS011;47212;41.326;2.104;2022-11-20T23:29:39;10.10;;;5.57;;
61336;SDS011;47212;41.326;2.104;2022-11-20T23:34:41;9.02;;;5.97;;
61336;SDS011;47212;41.326;2.104;2022-11-20T23:39:45;9.68;;;5.93;;
61336;SDS011;47212;41.326;2.104;2022-11-20T23:44:47;13.18;;;6.97;;
61336;SDS011;47212;41.326;2.104;2022-11-20T23:49:49;18.35;;;7.25;;
61336;SDS011;47212;41.326;2.104;2022-11-20T23:54:51;15.52;;;6.57;;
61336;SDS011;47212;41.326;2.104;2022-11-20T23:59:54;10.13;;;5.22;;
